createdAt,value
2022-11-19T00:00:29.964Z,20.15
2022-11-19T00:02:03.113Z,19.75
2022-11-19T00:03:37.734Z,20.40
2022-11-19T00:05:10.879Z,20.90
2022-11-19T00:06:43.939Z,19.02
2022-11-19T00:08:20.814Z,20.90
2022-11-19T00:09:55.261Z,18.20
2022-11-19T00:11:47.322Z,21.58
2022-11-19T00:13:20.356Z,20.33
2022-11-19T00:14:52.430Z,19.90
2022-11-19T00:16:25.490Z,19.10
2022-11-19T00:17:58.893Z,21.83
2022-11-19T00:19:31.970Z,21.40
2022-11-19T00:21:07.177Z,20.95
2022-11-19T00:22:41.597Z,21.05
2022-11-19T00:24:14.885Z,19.65
2022-11-19T00:25:50.381Z,20.70
2022-11-19T00:27:23.484Z,20.00
2022-11-19T00:28:56.692Z,20.75
2022-11-19T00:30:47.400Z,22.55
2022-11-19T00:32:21.361Z,18.05
2022-11-19T00:33:55.247Z,19.05
2022-11-19T00:35:28.305Z,21.38
2022-11-19T00:37:01.551Z,20.40
2022-11-19T00:38:34.726Z,20.20
2022-11-19T00:40:08.883Z,19.17
2022-11-19T00:41:43.287Z,20.83
2022-11-19T00:43:33.997Z,20.00
2022-11-19T00:45:08.312Z,18.55
2022-11-19T00:46:40.405Z,18.02
2022-11-19T00:48:13.554Z,19.08
2022-11-19T00:49:46.973Z,19.92
2022-11-19T00:51:20.900Z,19.20
2022-11-19T00:52:54.083Z,20.83
2022-11-19T00:54:27.121Z,19.20
2022-11-19T00:56:00.956Z,19.63
2022-11-19T00:57:35.396Z,19.75
2022-11-19T00:59:08.501Z,21.05
2022-11-19T01:00:40.638Z,18.60
2022-11-19T01:02:13.716Z,21.45
2022-11-19T01:03:46.862Z,21.67
2022-11-19T01:05:19.897Z,20.83
2022-11-19T01:06:53.053Z,19.63
2022-11-19T01:08:25.398Z,20.33
2022-11-19T01:09:58.461Z,23.88
2022-11-19T01:11:34.413Z,21.98
2022-11-19T01:13:22.680Z,23.95
2022-11-19T01:14:55.797Z,22.80
2022-11-19T01:16:31.241Z,23.83
2022-11-19T01:18:03.358Z,20.77
2022-11-19T01:19:36.387Z,19.55
2022-11-19T01:21:11.362Z,20.02
2022-11-19T01:22:46.279Z,22.90
2022-11-19T01:24:19.692Z,22.27
2022-11-19T01:25:51.858Z,21.90
2022-11-19T01:27:24.923Z,21.25
2022-11-19T01:28:59.366Z,20.65
2022-11-19T01:30:32.060Z,21.30
2022-11-19T01:32:05.164Z,21.17
2022-11-19T01:33:38.047Z,18.50
2022-11-19T01:35:11.095Z,20.15
2022-11-19T01:36:44.508Z,21.98
2022-11-19T01:38:16.551Z,21.10
2022-11-19T01:39:49.794Z,20.48
2022-11-19T01:41:25.158Z,21.15
2022-11-19T01:42:57.383Z,18.73
2022-11-19T01:45:01.358Z,21.10
2022-11-19T01:46:36.493Z,22.10
2022-11-19T01:48:13.222Z,21.92
2022-11-19T01:49:46.408Z,20.73
2022-11-19T01:51:23.804Z,22.45
2022-11-19T01:52:55.968Z,20.15
2022-11-19T01:54:31.314Z,23.05
2022-11-19T01:56:07.682Z,22.73
2022-11-19T01:57:40.992Z,21.90
2022-11-19T01:59:17.629Z,22.13
2022-11-19T02:00:52.509Z,22.27
2022-11-19T02:02:25.226Z,23.05
2022-11-19T02:04:01.652Z,20.13
2022-11-19T02:05:35.187Z,23.77
2022-11-19T02:07:10.740Z,23.17
2022-11-19T02:08:45.445Z,22.40
2022-11-19T02:10:18.662Z,24.92
2022-11-19T02:12:18.843Z,26.33
2022-11-19T02:14:04.162Z,23.65
2022-11-19T02:15:43.796Z,23.10
2022-11-19T02:17:26.030Z,23.52
2022-11-19T02:19:04.188Z,24.42
2022-11-19T02:21:13.248Z,25.05
2022-11-19T02:23:07.853Z,24.33
2022-11-19T02:24:52.484Z,24.98
2022-11-19T02:27:04.540Z,23.50
2022-11-19T02:28:42.096Z,24.98
2022-11-19T02:30:17.699Z,23.58
2022-11-19T02:31:57.114Z,25.67
2022-11-19T02:33:36.087Z,22.20
2022-11-19T02:35:19.750Z,21.92
2022-11-19T02:37:02.032Z,21.10
2022-11-19T02:38:39.399Z,21.83
2022-11-19T02:40:20.329Z,21.90
2022-11-19T02:42:01.022Z,23.80
2022-11-19T02:43:37.571Z,22.02
2022-11-19T02:45:12.695Z,22.95
2022-11-19T02:46:49.955Z,20.05
2022-11-19T02:48:26.132Z,22.88
2022-11-19T02:50:03.328Z,24.13
2022-11-19T02:51:36.621Z,22.98
2022-11-19T02:53:09.713Z,21.55
2022-11-19T02:54:42.922Z,22.08
2022-11-19T02:56:51.413Z,21.17
2022-11-19T02:58:38.944Z,22.60
2022-11-19T03:00:33.716Z,20.90
2022-11-19T03:02:27.478Z,20.63
2022-11-19T03:04:20.131Z,23.70
2022-11-19T03:05:58.318Z,22.77
2022-11-19T03:07:31.499Z,22.35
2022-11-19T03:09:05.025Z,23.40
2022-11-19T03:10:44.148Z,21.95
2022-11-19T03:12:24.142Z,23.20
2022-11-19T03:14:20.551Z,23.45
2022-11-19T03:16:12.754Z,22.35
2022-11-19T03:18:00.974Z,29.17
2022-11-19T03:19:38.295Z,22.85
2022-11-19T03:21:16.958Z,23.50
2022-11-19T03:22:53.256Z,21.85
2022-11-19T03:24:31.950Z,22.67
2022-11-19T03:26:11.911Z,20.90
2022-11-19T03:27:46.728Z,23.15
2022-11-19T03:29:21.233Z,23.33
2022-11-19T03:30:56.977Z,22.92
2022-11-19T03:32:37.973Z,26.27
2022-11-19T03:34:17.226Z,25.45
2022-11-19T03:35:53.458Z,24.63
2022-11-19T03:37:28.012Z,21.85
2022-11-19T03:39:04.264Z,25.15
2022-11-19T03:40:38.985Z,25.88
2022-11-19T03:42:15.650Z,25.25
2022-11-19T03:43:55.913Z,24.15
2022-11-19T03:45:33.220Z,22.77
2022-11-19T03:47:11.266Z,24.20
2022-11-19T03:48:47.980Z,24.17
2022-11-19T03:50:29.372Z,24.23
2022-11-19T03:52:07.842Z,22.02
2022-11-19T03:53:41.061Z,28.70
2022-11-19T03:55:14.396Z,29.58
2022-11-19T03:56:47.719Z,28.13
2022-11-19T03:58:24.380Z,26.30
2022-11-19T03:59:57.437Z,24.95
2022-11-19T04:01:29.642Z,25.08
2022-11-19T04:03:02.835Z,25.05
2022-11-19T04:04:37.709Z,23.55
2022-11-19T04:06:12.490Z,23.30
2022-11-19T04:07:45.553Z,25.00
2022-11-19T04:09:18.965Z,26.90
2022-11-19T04:10:52.268Z,24.75
2022-11-19T04:12:26.347Z,21.55
2022-11-19T04:13:58.419Z,24.35
2022-11-19T04:15:31.474Z,25.73
2022-11-19T04:17:04.591Z,25.10
2022-11-19T04:18:37.641Z,22.48
2022-11-19T04:20:11.307Z,23.70
2022-11-19T04:21:44.974Z,22.23
2022-11-19T04:23:18.009Z,24.42
2022-11-19T04:24:51.040Z,24.92
2022-11-19T04:26:23.172Z,22.52
2022-11-19T04:27:56.373Z,22.65
2022-11-19T04:29:28.574Z,23.35
2022-11-19T04:31:01.615Z,24.23
2022-11-19T04:32:34.718Z,24.27
2022-11-19T04:34:08.017Z,23.73
2022-11-19T04:35:41.101Z,25.35
2022-11-19T04:37:15.539Z,25.00
2022-11-19T04:38:48.563Z,26.08
2022-11-19T04:40:21.627Z,25.02
2022-11-19T04:41:53.741Z,25.02
2022-11-19T04:43:26.891Z,25.75
2022-11-19T04:45:00.205Z,25.10
2022-11-19T04:46:33.620Z,25.95
2022-11-19T04:48:07.105Z,24.90
2022-11-19T04:49:40.157Z,27.48
2022-11-19T04:51:13.241Z,23.95
2022-11-19T04:52:47.663Z,22.05
2022-11-19T04:54:20.738Z,23.20
2022-11-19T04:55:52.871Z,24.17
2022-11-19T04:57:25.937Z,23.15
2022-11-19T04:58:59.034Z,23.52
2022-11-19T05:00:32.231Z,24.92
2022-11-19T05:02:05.293Z,27.58
2022-11-19T05:03:38.395Z,25.48
2022-11-19T05:05:11.563Z,21.83
2022-11-19T05:06:44.681Z,24.45
2022-11-19T05:08:19.121Z,24.40
2022-11-19T05:09:52.174Z,23.75
2022-11-19T05:11:25.286Z,25.80
2022-11-19T05:12:58.335Z,25.75
2022-11-19T05:14:31.632Z,25.17
2022-11-19T05:16:05.115Z,25.52
2022-11-19T05:17:37.175Z,25.05
2022-11-19T05:19:10.640Z,25.60
2022-11-19T05:20:43.760Z,22.27
2022-11-19T05:22:16.960Z,22.15
2022-11-19T05:23:51.390Z,24.30
2022-11-19T05:25:23.491Z,22.38
2022-11-19T05:26:56.567Z,24.17
2022-11-19T05:28:38.714Z,22.80
2022-11-19T05:30:13.324Z,23.52
2022-11-19T05:31:46.358Z,23.58
2022-11-19T05:33:19.423Z,23.73
2022-11-19T05:34:51.466Z,22.38
2022-11-19T05:36:24.532Z,24.90
2022-11-19T05:37:57.621Z,23.70
2022-11-19T05:39:32.036Z,23.60
2022-11-19T05:41:05.116Z,24.85
2022-11-19T05:42:37.210Z,28.00
2022-11-19T05:44:10.310Z,23.42
2022-11-19T05:45:42.368Z,23.85
2022-11-19T05:47:16.581Z,24.42
2022-11-19T05:48:49.686Z,24.35
2022-11-19T05:50:22.870Z,25.13
2022-11-19T05:51:56.226Z,22.63
2022-11-19T05:53:29.280Z,26.08
2022-11-19T05:55:04.305Z,24.20
2022-11-19T05:56:37.354Z,23.95
2022-11-19T05:58:10.441Z,20.52
2022-11-19T05:59:44.223Z,22.05
2022-11-19T06:01:17.694Z,23.00
2022-11-19T06:02:49.807Z,22.38
2022-11-19T06:04:22.908Z,23.63
2022-11-19T06:05:55.963Z,24.48
2022-11-19T06:07:29.262Z,23.95
2022-11-19T06:09:02.367Z,24.67
2022-11-19T06:10:36.820Z,24.73
2022-11-19T06:12:08.959Z,23.98
2022-11-19T06:13:41.988Z,26.05
2022-11-19T06:15:15.582Z,24.95
2022-11-19T06:16:48.666Z,28.52
2022-11-19T06:18:21.728Z,27.00
2022-11-19T06:19:54.790Z,27.15
2022-11-19T06:21:26.866Z,27.90
2022-11-19T06:22:59.987Z,26.38
2022-11-19T06:24:32.051Z,23.48
2022-11-19T06:26:08.366Z,26.92
2022-11-19T06:27:41.450Z,23.48
2022-11-19T06:29:15.629Z,25.85
2022-11-19T06:30:48.691Z,23.05
2022-11-19T06:32:21.780Z,24.92
2022-11-19T06:33:54.831Z,22.85
2022-11-19T06:35:27.936Z,26.15
2022-11-19T06:37:01.000Z,27.77
2022-11-19T06:38:34.064Z,25.42
2022-11-19T06:40:08.514Z,26.38
2022-11-19T06:41:42.977Z,25.05
2022-11-19T06:43:15.071Z,23.50
2022-11-19T06:44:48.193Z,25.88
2022-11-19T06:46:21.657Z,27.05
2022-11-19T06:47:54.785Z,28.75
2022-11-19T06:49:27.854Z,22.48
2022-11-19T06:51:01.598Z,21.83
2022-11-19T06:52:34.691Z,24.02
2022-11-19T06:54:07.757Z,24.20
2022-11-19T06:55:40.874Z,24.30
2022-11-19T06:57:15.359Z,24.92
2022-11-19T06:58:48.441Z,25.75
2022-11-19T07:00:21.679Z,23.02
2022-11-19T07:01:54.791Z,25.20
2022-11-19T07:03:28.034Z,26.73
2022-11-19T07:05:01.133Z,22.42
2022-11-19T07:06:34.230Z,24.48
2022-11-19T07:08:07.403Z,22.50
2022-11-19T07:09:40.536Z,25.88
2022-11-19T07:11:28.606Z,28.52
2022-11-19T07:13:03.325Z,28.30
2022-11-19T07:14:36.850Z,28.45
2022-11-19T07:16:09.945Z,26.65
2022-11-19T07:17:43.380Z,25.33
2022-11-19T07:19:16.566Z,25.05
2022-11-19T07:20:49.659Z,23.45
2022-11-19T07:22:22.740Z,22.05
2022-11-19T07:23:56.188Z,22.88
2022-11-19T07:25:29.744Z,22.65
2022-11-19T07:27:02.855Z,20.65
2022-11-19T07:28:37.337Z,19.90
2022-11-19T07:30:11.410Z,19.95
2022-11-19T07:31:46.853Z,18.90
2022-11-19T07:33:19.923Z,21.00
2022-11-19T07:34:53.018Z,23.52
2022-11-19T07:36:26.350Z,24.63
2022-11-19T07:37:59.608Z,24.10
2022-11-19T07:39:32.705Z,22.70
2022-11-19T07:41:27.560Z,22.45
2022-11-19T07:42:59.625Z,21.88
2022-11-19T07:44:34.835Z,23.13
2022-11-19T07:46:08.126Z,20.67
2022-11-19T07:47:41.341Z,21.30
2022-11-19T07:49:14.584Z,19.75
2022-11-19T07:50:56.275Z,18.38
2022-11-19T07:52:29.723Z,18.50
2022-11-19T07:54:02.935Z,17.65
2022-11-19T07:55:36.075Z,17.00
2022-11-19T07:57:09.162Z,17.45
2022-11-19T07:58:42.466Z,19.48
2022-11-19T08:00:17.541Z,17.75
2022-11-19T08:01:50.670Z,19.65
2022-11-19T08:03:23.737Z,19.60
2022-11-19T08:04:56.837Z,20.45
2022-11-19T08:06:30.751Z,19.73
2022-11-19T08:08:03.834Z,19.88
2022-11-19T08:09:37.157Z,20.40
2022-11-19T08:11:12.246Z,18.85
2022-11-19T08:13:03.049Z,20.00
2022-11-19T08:14:36.202Z,21.35
2022-11-19T08:16:12.895Z,21.23
2022-11-19T08:18:03.325Z,19.90
2022-11-19T08:19:35.440Z,20.17
2022-11-19T08:21:10.838Z,18.95
2022-11-19T08:22:43.904Z,20.27
2022-11-19T08:24:19.677Z,20.43
2022-11-19T08:25:53.804Z,18.63
2022-11-19T08:27:26.865Z,18.50
2022-11-19T08:28:59.931Z,16.97
2022-11-19T08:30:33.579Z,18.33
2022-11-19T08:32:07.994Z,19.00
2022-11-19T08:33:41.041Z,18.80
2022-11-19T08:35:14.138Z,18.90
2022-11-19T08:36:47.211Z,16.13
2022-11-19T08:38:20.575Z,17.63
2022-11-19T08:39:53.614Z,18.83
2022-11-19T08:41:44.483Z,17.37
2022-11-19T08:43:17.560Z,17.40
2022-11-19T08:44:50.623Z,18.80
2022-11-19T08:46:23.714Z,17.03
2022-11-19T08:47:58.952Z,18.40
2022-11-19T08:49:32.187Z,17.03
2022-11-19T08:51:06.105Z,16.70
2022-11-19T08:52:39.149Z,17.70
2022-11-19T08:54:13.119Z,18.10
2022-11-19T08:55:52.228Z,18.67
2022-11-19T08:57:25.332Z,16.33
2022-11-19T08:59:02.491Z,18.60
2022-11-19T09:00:38.112Z,16.20
2022-11-19T09:02:11.640Z,21.50
2022-11-19T09:03:46.581Z,18.47
2022-11-19T09:05:19.643Z,19.87
2022-11-19T09:06:52.724Z,18.67
2022-11-19T09:08:25.783Z,18.97
2022-11-19T09:09:58.877Z,18.97
2022-11-19T09:11:32.164Z,16.93
2022-11-19T09:13:05.811Z,19.53
2022-11-19T09:14:38.890Z,18.87
2022-11-19T09:16:12.806Z,21.27
2022-11-19T09:17:47.156Z,21.20
2022-11-19T09:19:21.836Z,19.47
2022-11-19T09:20:56.094Z,17.43
2022-11-19T09:22:29.949Z,17.33
2022-11-19T09:24:02.988Z,17.40
2022-11-19T09:25:36.126Z,20.37
2022-11-19T09:27:09.206Z,19.73
2022-11-19T09:28:43.127Z,18.83
2022-11-19T09:30:16.439Z,19.70
2022-11-19T09:31:49.612Z,18.97
2022-11-19T09:33:22.703Z,21.47
2022-11-19T09:34:57.154Z,18.17
2022-11-19T09:36:30.201Z,17.57
2022-11-19T09:38:03.284Z,19.90
2022-11-19T09:39:36.752Z,20.67
2022-11-19T09:41:36.063Z,18.27
2022-11-19T09:43:17.513Z,19.83
2022-11-19T09:45:06.772Z,18.87
2022-11-19T09:46:50.073Z,19.23
2022-11-19T09:48:33.766Z,19.83
2022-11-19T09:50:17.312Z,18.97
2022-11-19T09:51:57.273Z,19.17
2022-11-19T09:53:34.077Z,19.40
2022-11-19T09:55:15.304Z,19.00
2022-11-19T09:56:51.119Z,22.47
2022-11-19T09:58:28.134Z,22.50
2022-11-19T10:00:03.377Z,19.60
2022-11-19T10:01:44.693Z,20.37
2022-11-19T10:03:21.591Z,22.07
2022-11-19T10:04:55.166Z,19.10
2022-11-19T10:06:36.302Z,19.10
2022-11-19T10:08:23.686Z,19.47
2022-11-19T10:10:09.183Z,19.83
2022-11-19T10:11:55.183Z,19.97
2022-11-19T10:13:44.602Z,21.77
2022-11-19T10:15:23.990Z,21.37
2022-11-19T10:17:05.986Z,20.50
2022-11-19T10:18:48.474Z,19.87
2022-11-19T10:20:40.976Z,18.20
2022-11-19T10:22:21.637Z,19.83
2022-11-19T10:24:04.211Z,20.23
2022-11-19T10:25:40.029Z,18.33
2022-11-19T10:27:24.258Z,21.40
2022-11-19T10:28:58.892Z,19.20
2022-11-19T10:30:32.680Z,20.47
2022-11-19T10:32:21.319Z,20.27
2022-11-19T10:33:59.958Z,18.60
2022-11-19T10:35:38.910Z,20.70
2022-11-19T10:37:17.313Z,18.93
2022-11-19T10:38:58.144Z,17.23
2022-11-19T10:40:37.852Z,21.73
2022-11-19T10:42:20.813Z,19.43
2022-11-19T10:43:58.854Z,20.43
2022-11-19T10:45:31.944Z,16.80
2022-11-19T10:47:05.607Z,18.50
2022-11-19T10:48:42.550Z,17.57
2022-11-19T10:50:20.202Z,16.30
2022-11-19T10:51:53.335Z,16.87
2022-11-19T10:53:32.149Z,16.13
2022-11-19T10:55:17.860Z,16.73
2022-11-19T10:56:53.304Z,15.67
2022-11-19T10:58:30.473Z,17.30
2022-11-19T11:00:03.897Z,20.47
2022-11-19T11:01:39.680Z,16.63
2022-11-19T11:03:19.865Z,16.33
2022-11-19T11:05:10.032Z,17.77
2022-11-19T11:06:54.413Z,15.70
2022-11-19T11:08:29.081Z,17.70
2022-11-19T11:10:02.163Z,16.67
2022-11-19T11:11:49.335Z,15.93
2022-11-19T11:13:55.207Z,16.23
2022-11-19T11:15:28.661Z,16.07
2022-11-19T11:17:02.975Z,15.63
2022-11-19T11:18:40.509Z,16.37
2022-11-19T11:20:27.081Z,16.30
2022-11-19T11:22:00.824Z,15.97
2022-11-19T11:23:35.773Z,14.37
2022-11-19T11:25:21.130Z,13.90
2022-11-19T11:27:20.700Z,14.70
2022-11-19T11:29:02.401Z,14.97
2022-11-19T11:30:36.126Z,15.13
2022-11-19T11:32:28.447Z,14.57
2022-11-19T11:34:02.361Z,14.90
2022-11-19T11:35:38.695Z,14.77
2022-11-19T11:37:13.069Z,13.60
2022-11-19T11:38:49.173Z,14.90
2022-11-19T11:40:24.249Z,15.23
2022-11-19T11:42:07.256Z,14.80
2022-11-19T11:44:01.208Z,14.80
2022-11-19T11:45:37.330Z,16.70
2022-11-19T11:47:15.549Z,15.33
2022-11-19T11:48:50.199Z,17.93
2022-11-19T11:50:27.126Z,15.03
2022-11-19T11:52:22.481Z,15.27
2022-11-19T11:54:08.250Z,15.23
2022-11-19T11:55:41.428Z,14.43
2022-11-19T11:57:19.809Z,14.20
2022-11-19T11:58:52.858Z,14.13
2022-11-19T12:00:33.019Z,12.40
2022-11-19T12:02:08.283Z,13.30
2022-11-19T12:03:55.413Z,12.93
2022-11-19T12:05:32.759Z,12.83
2022-11-19T12:07:16.232Z,13.03
2022-11-19T12:08:56.718Z,14.20
2022-11-19T12:10:41.757Z,13.23
2022-11-19T12:12:20.877Z,12.83
2022-11-19T12:13:58.262Z,11.43
2022-11-19T12:15:43.285Z,11.10
2022-11-19T12:17:28.731Z,9.60
2022-11-19T12:19:26.082Z,8.97
2022-11-19T12:21:11.452Z,11.40
2022-11-19T12:22:58.847Z,9.80
2022-11-19T12:24:53.445Z,10.13
2022-11-19T12:26:38.669Z,9.67
2022-11-19T12:28:43.932Z,10.43
2022-11-19T12:30:20.609Z,10.50
2022-11-19T12:32:16.421Z,10.73
2022-11-19T12:34:06.627Z,10.03
2022-11-19T12:36:05.907Z,8.00
2022-11-19T12:38:04.584Z,7.87
2022-11-19T12:39:46.749Z,10.23
2022-11-19T12:41:44.115Z,8.87
2022-11-19T12:43:36.286Z,8.73
2022-11-19T12:45:18.385Z,10.40
2022-11-19T12:46:57.997Z,10.07
2022-11-19T12:48:48.050Z,8.57
2022-11-19T12:50:27.716Z,10.47
2022-11-19T12:52:07.443Z,9.57
2022-11-19T12:54:04.315Z,9.13
2022-11-19T12:55:45.481Z,10.47
2022-11-19T12:57:35.549Z,10.93
2022-11-19T12:59:21.329Z,11.67
2022-11-19T13:00:59.502Z,10.90
2022-11-19T13:02:40.791Z,12.53
2022-11-19T13:04:18.257Z,11.57
2022-11-19T13:05:55.288Z,11.93
2022-11-19T13:07:36.008Z,13.30
2022-11-19T13:09:13.864Z,14.90
2022-11-19T13:10:50.561Z,13.10
2022-11-19T13:12:38.632Z,12.40
2022-11-19T13:14:18.854Z,11.80
2022-11-19T13:15:58.158Z,11.93
2022-11-19T13:17:35.481Z,11.47
2022-11-19T13:19:20.745Z,11.50
2022-11-19T13:20:58.952Z,12.73
2022-11-19T13:22:36.753Z,13.40
2022-11-19T13:24:18.628Z,12.43
2022-11-19T13:25:59.658Z,11.97
2022-11-19T13:27:34.106Z,13.37
2022-11-19T13:29:34.846Z,12.37
2022-11-19T13:31:14.617Z,12.07
2022-11-19T13:32:55.495Z,12.30
2022-11-19T13:34:35.805Z,11.93
2022-11-19T13:36:16.361Z,12.40
2022-11-19T13:37:58.873Z,11.87
2022-11-19T13:39:37.104Z,11.07
2022-11-19T13:41:14.040Z,11.63
2022-11-19T13:44:59.170Z,10.37
2022-11-19T13:46:38.254Z,10.57
2022-11-19T13:48:23.314Z,11.77
2022-11-19T13:50:00.173Z,10.73
2022-11-19T13:51:36.065Z,11.43
2022-11-19T13:53:16.495Z,13.13
2022-11-19T13:54:50.023Z,11.77
2022-11-19T13:56:23.400Z,12.47
2022-11-19T13:58:07.464Z,12.23
2022-11-19T13:59:45.105Z,13.70
2022-11-19T14:01:55.181Z,14.53
2022-11-19T14:03:43.562Z,14.00
2022-11-19T14:05:41.182Z,12.33
2022-11-19T14:07:54.097Z,14.63
2022-11-19T14:09:39.397Z,13.83
2022-11-19T14:11:24.463Z,16.90
2022-11-19T14:13:22.717Z,16.17
2022-11-19T14:15:35.062Z,16.40
2022-11-19T14:17:36.677Z,18.07
2022-11-19T14:19:32.376Z,19.50
2022-11-19T14:21:55.283Z,18.47
2022-11-19T14:24:04.052Z,19.17
2022-11-19T14:26:04.148Z,18.17
2022-11-19T14:27:37.276Z,18.83
2022-11-19T14:29:50.264Z,19.20
2022-11-19T14:31:23.390Z,19.20
2022-11-19T14:32:56.443Z,18.17
2022-11-19T14:34:32.229Z,19.77
2022-11-19T14:36:11.405Z,17.23
2022-11-19T14:37:45.594Z,18.77
2022-11-19T14:39:24.666Z,17.95
2022-11-19T14:41:16.445Z,18.63
2022-11-19T14:43:43.722Z,17.48
2022-11-19T14:45:21.965Z,18.92
2022-11-19T14:46:55.097Z,18.52
2022-11-19T14:48:28.493Z,18.20
2022-11-19T14:50:03.395Z,17.88
2022-11-19T14:51:38.973Z,19.48
2022-11-19T14:53:21.260Z,18.42
2022-11-19T14:54:57.883Z,17.02
2022-11-19T14:56:31.454Z,16.90
2022-11-19T14:58:08.150Z,17.70
2022-11-19T14:59:46.207Z,18.17
2022-11-19T15:01:24.441Z,20.00
2022-11-19T15:02:58.118Z,19.30
2022-11-19T15:04:36.932Z,20.88
2022-11-19T15:06:17.346Z,21.83
2022-11-19T15:07:56.267Z,18.73
2022-11-19T15:10:04.323Z,19.77
2022-11-19T15:12:02.099Z,19.77
2022-11-19T15:13:36.334Z,21.25
2022-11-19T15:15:39.053Z,20.27
2022-11-19T15:17:13.968Z,19.13
2022-11-19T15:19:20.915Z,19.25
2022-11-19T15:21:31.522Z,18.63
2022-11-19T15:23:18.978Z,20.20
2022-11-19T15:25:32.797Z,19.55
2022-11-19T15:27:17.585Z,19.38
2022-11-19T15:29:05.195Z,21.80
2022-11-19T15:31:09.651Z,17.63
2022-11-19T15:33:00.343Z,17.55
2022-11-19T15:35:10.509Z,19.13
2022-11-19T15:36:46.604Z,18.90
2022-11-19T15:38:30.944Z,17.45
2022-11-19T15:40:05.578Z,19.13
2022-11-19T15:41:44.488Z,19.30
2022-11-19T15:43:23.970Z,18.27
2022-11-19T15:45:01.768Z,19.77
2022-11-19T15:46:41.928Z,17.50
2022-11-19T15:48:20.719Z,18.00
2022-11-19T15:49:55.992Z,17.30
2022-11-19T15:51:33.192Z,16.95
2022-11-19T15:53:17.731Z,15.13
2022-11-19T15:54:50.839Z,17.42
2022-11-19T15:56:23.981Z,14.88
2022-11-19T15:58:01.165Z,17.48
2022-11-19T15:59:38.838Z,17.45
2022-11-19T16:01:16.638Z,16.80
2022-11-19T16:02:51.959Z,20.92
2022-11-19T16:04:32.971Z,23.55
2022-11-19T16:06:09.926Z,23.42
2022-11-19T16:07:46.334Z,21.73
2022-11-19T16:09:23.700Z,22.55
2022-11-19T16:11:12.821Z,23.17
2022-11-19T16:13:11.028Z,20.60
2022-11-19T16:15:08.579Z,23.17
2022-11-19T16:16:59.099Z,20.98
2022-11-19T16:18:32.393Z,25.73
2022-11-19T16:20:20.442Z,24.48
2022-11-19T16:21:58.042Z,26.48
2022-11-19T16:23:31.791Z,24.40
2022-11-19T16:25:10.634Z,26.85
2022-11-19T16:26:45.647Z,25.70
2022-11-19T16:28:21.076Z,26.73
2022-11-19T16:29:54.324Z,27.13
2022-11-19T16:31:31.751Z,29.80
2022-11-19T16:33:04.963Z,26.70
2022-11-19T16:34:38.197Z,26.35
2022-11-19T16:36:17.432Z,23.73
2022-11-19T16:37:50.969Z,25.27
2022-11-19T16:39:27.308Z,22.73
2022-11-19T16:41:32.307Z,22.85
2022-11-19T16:43:06.291Z,29.00
2022-11-19T16:44:39.644Z,24.38
2022-11-19T16:46:17.119Z,25.05
2022-11-19T16:47:55.272Z,25.95
2022-11-19T16:49:32.720Z,23.77
2022-11-19T16:51:31.558Z,25.55
2022-11-19T16:53:06.051Z,24.10
2022-11-19T16:54:49.852Z,23.70
2022-11-19T16:56:22.649Z,26.65
2022-11-19T16:57:58.687Z,27.52
2022-11-19T16:59:33.050Z,28.95
2022-11-19T17:01:06.416Z,32.17
2022-11-19T17:02:41.409Z,34.10
2022-11-19T17:04:15.643Z,34.75
2022-11-19T17:05:52.995Z,29.73
2022-11-19T17:07:28.606Z,32.22
2022-11-19T17:09:03.101Z,29.88
2022-11-19T17:10:36.166Z,30.17
2022-11-19T17:12:23.221Z,32.42
2022-11-19T17:13:56.314Z,31.27
2022-11-19T17:15:38.430Z,30.67
2022-11-19T17:17:40.375Z,29.55
2022-11-19T17:19:27.141Z,31.67
2022-11-19T17:21:02.942Z,29.48
2022-11-19T17:22:40.289Z,33.10
2022-11-19T17:24:14.666Z,29.50
2022-11-19T17:25:49.296Z,32.75
2022-11-19T17:27:28.669Z,30.77
2022-11-19T17:29:10.023Z,29.10
2022-11-19T17:30:45.949Z,28.83
2022-11-19T17:32:19.015Z,27.15
2022-11-19T17:33:53.834Z,28.63
2022-11-19T17:35:35.185Z,29.27
2022-11-19T17:37:09.758Z,29.25
2022-11-19T17:38:44.249Z,31.30
2022-11-19T17:40:17.505Z,30.25
2022-11-19T17:42:10.851Z,29.63
2022-11-19T17:44:01.727Z,28.05
2022-11-19T17:45:34.819Z,27.95
2022-11-19T17:47:24.350Z,30.38
2022-11-19T17:48:57.953Z,29.83
2022-11-19T17:50:31.018Z,29.10
2022-11-19T17:52:04.287Z,28.45
2022-11-19T17:53:37.350Z,29.95
2022-11-19T17:55:17.660Z,28.73
2022-11-19T17:56:50.724Z,29.27
2022-11-19T17:58:23.809Z,30.35
2022-11-19T17:59:56.856Z,31.05
2022-11-19T18:01:30.060Z,30.40
2022-11-19T18:03:03.506Z,31.17
2022-11-19T18:04:36.658Z,33.00
2022-11-19T18:06:12.968Z,31.58
2022-11-19T18:07:46.359Z,32.10
2022-11-19T18:09:19.683Z,33.80
2022-11-19T18:10:54.409Z,37.60
2022-11-19T18:12:27.755Z,32.28
2022-11-19T18:14:03.161Z,33.42
2022-11-19T18:15:36.252Z,33.10
2022-11-19T18:17:12.091Z,35.70
2022-11-19T18:18:45.298Z,35.95
2022-11-19T18:20:18.443Z,35.05
2022-11-19T18:21:51.652Z,34.58
2022-11-19T18:23:24.692Z,35.88
2022-11-19T18:24:59.317Z,34.78
2022-11-19T18:26:33.748Z,35.25
2022-11-19T18:28:06.862Z,33.78
2022-11-19T18:29:39.923Z,30.35
2022-11-19T18:31:16.351Z,30.98
2022-11-19T18:32:49.437Z,31.02
2022-11-19T18:34:24.554Z,29.83
2022-11-19T18:35:57.631Z,33.92
2022-11-19T18:37:30.786Z,32.47
2022-11-19T18:39:03.864Z,30.90
2022-11-19T18:40:37.352Z,30.67
2022-11-19T18:42:12.930Z,34.42
2022-11-19T18:44:03.388Z,30.90
2022-11-19T18:45:35.461Z,30.88
2022-11-19T18:47:12.681Z,33.13
2022-11-19T18:48:45.789Z,26.77
2022-11-19T18:50:18.999Z,26.75
2022-11-19T18:51:52.260Z,30.13
2022-11-19T18:53:25.344Z,29.25
2022-11-19T18:54:58.456Z,33.03
2022-11-19T18:56:31.604Z,32.05
2022-11-19T18:58:06.069Z,31.90
2022-11-19T18:59:39.451Z,32.05
2022-11-19T19:01:13.168Z,30.73
2022-11-19T19:02:46.345Z,30.15
2022-11-19T19:04:19.756Z,29.08
2022-11-19T19:05:52.889Z,32.58
2022-11-19T19:07:25.972Z,30.63
2022-11-19T19:08:59.251Z,30.67
2022-11-19T19:10:32.320Z,33.63
2022-11-19T19:12:20.418Z,30.27
2022-11-19T19:13:54.919Z,29.70
2022-11-19T19:15:27.979Z,32.17
2022-11-19T19:17:01.250Z,31.65
2022-11-19T19:18:34.308Z,32.90
2022-11-19T19:20:08.709Z,36.15
2022-11-19T19:21:41.980Z,32.10
2022-11-19T19:23:15.034Z,31.58
2022-11-19T19:24:48.194Z,31.15
2022-11-19T19:26:21.311Z,33.25
2022-11-19T19:27:54.368Z,31.13
2022-11-19T19:29:29.134Z,31.58
2022-11-19T19:31:02.264Z,33.83
2022-11-19T19:32:35.366Z,30.13
2022-11-19T19:34:08.447Z,34.53
2022-11-19T19:35:41.703Z,31.13
2022-11-19T19:37:14.761Z,28.85
2022-11-19T19:38:47.821Z,29.33
2022-11-19T19:40:20.894Z,32.50
2022-11-19T19:41:54.109Z,30.27
2022-11-19T19:43:27.159Z,32.22
2022-11-19T19:45:01.544Z,31.98
2022-11-19T19:46:35.766Z,35.03
2022-11-19T19:48:09.109Z,28.45
2022-11-19T19:49:42.527Z,29.83
2022-11-19T19:51:17.191Z,29.20
2022-11-19T19:52:50.255Z,26.60
2022-11-19T19:54:23.364Z,28.80
2022-11-19T19:56:03.450Z,30.90
2022-11-19T19:57:36.503Z,31.45
2022-11-19T19:59:12.266Z,30.67
2022-11-19T20:00:46.749Z,31.15
2022-11-19T20:02:19.833Z,33.00
2022-11-19T20:03:54.928Z,34.28
2022-11-19T20:05:28.139Z,29.48
2022-11-19T20:07:01.240Z,30.63
2022-11-19T20:08:35.892Z,32.92
2022-11-19T20:10:09.907Z,31.67
2022-11-19T20:11:42.954Z,30.70
2022-11-19T20:13:32.026Z,29.25
2022-11-19T20:15:05.632Z,31.77
2022-11-19T20:16:41.610Z,30.17
2022-11-19T20:18:14.669Z,32.15
2022-11-19T20:19:47.731Z,30.73
2022-11-19T20:21:23.569Z,31.50
2022-11-19T20:22:57.410Z,29.83
2022-11-19T20:24:30.506Z,28.83
2022-11-19T20:26:06.865Z,32.22
2022-11-19T20:27:39.944Z,27.73
2022-11-19T20:29:14.666Z,27.92
2022-11-19T20:30:47.830Z,30.38
2022-11-19T20:32:22.276Z,26.98
2022-11-19T20:33:57.311Z,25.05
2022-11-19T20:35:30.378Z,28.92
2022-11-19T20:37:03.445Z,28.88
2022-11-19T20:38:37.315Z,27.40
2022-11-19T20:40:10.363Z,26.85
2022-11-19T20:41:59.873Z,29.50
2022-11-19T20:43:52.857Z,29.08
2022-11-19T20:45:26.075Z,27.60
2022-11-19T20:47:00.658Z,27.20
2022-11-19T20:48:34.093Z,29.70
2022-11-19T20:50:07.783Z,30.75
2022-11-19T20:51:41.430Z,31.75
2022-11-19T20:53:14.875Z,28.67
2022-11-19T20:54:49.556Z,31.08
2022-11-19T20:56:22.638Z,28.67
2022-11-19T20:57:57.003Z,29.02
2022-11-19T20:59:30.334Z,30.55
2022-11-19T21:01:05.264Z,27.77
2022-11-19T21:02:38.418Z,27.10
2022-11-19T21:04:13.397Z,26.55